sensor_id;sensor_type;location;lat;lon;timestamp;pressure;altitude;pressure_sealevel;temperature;humidity
25658;BME280;13517;59.320;18.042;2023-02-14T00:01:42;102535.78;;;4.32;100.00
25658;BME280;13517;59.320;18.042;2023-02-14T00:04:07;102501.13;;;4.15;100.00
25658;BME280;13517;59.320;18.042;2023-02-14T00:06:34;102502.91;;;4.16;100.00
25658;BME280;13517;59.320;18.042;2023-02-14T00:09:01;102499.41;;;4.11;100.00
25658;BME280;13517;59.320;18.042;2023-02-14T00:11:27;102526.06;;;4.17;100.00
25658;BME280;13517;59.320;18.042;2023-02-14T00:13:52;102475.53;;;3.88;100.00
25658;BME280;13517;59.320;18.042;2023-02-14T00:16:37;102502.22;;;3.92;100.00
25658;BME280;13517;59.320;18.042;2023-02-14T00:19:02;102483.56;;;3.86;100.00
25658;BME280;13517;59.320;18.042;2023-02-14T00:21:31;102512.88;;;3.97;100.00
25658;BME280;13517;59.320;18.042;2023-02-14T00:24:00;102520.88;;;4.03;100.00
25658;BME280;13517;59.320;18.042;2023-02-14T00:26:25;102504.00;;;3.93;100.00
25658;BME280;13517;59.320;18.042;2023-02-14T00:28:51;102515.53;;;4.02;100.00
25658;BME280;13517;59.320;18.042;2023-02-14T00:31:16;102537.69;;;4.16;100.00
25658;BME280;13517;59.320;18.042;2023-02-14T00:33:41;102505.72;;;4.01;100.00
25658;BME280;13517;59.320;18.042;2023-02-14T00:36:09;102513.72;;;4.04;100.00
25658;BME280;13517;59.320;18.042;2023-02-14T00:38:35;102540.41;;;4.10;100.00
25658;BME280;13517;59.320;18.042;2023-02-14T00:41:00;102539.53;;;4.11;100.00
25658;BME280;13517;59.320;18.042;2023-02-14T00:43:26;102504.91;;;3.89;100.00
25658;BME280;13517;59.320;18.042;2023-02-14T00:45:51;102496.13;;;3.75;100.00
25658;BME280;13517;59.320;18.042;2023-02-14T00:48:17;102544.03;;;4.03;100.00
25658;BME280;13517;59.320;18.042;2023-02-14T00:50:42;102530.69;;;3.97;100.00
25658;BME280;13517;59.320;18.042;2023-02-14T00:53:10;102544.97;;;3.95;100.00
25658;BME280;13517;59.320;18.042;2023-02-14T00:55:35;102529.00;;;3.86;100.00
25658;BME280;13517;59.320;18.042;2023-02-14T00:58:01;102496.09;;;3.76;100.00
25658;BME280;13517;59.320;18.042;2023-02-14T01:00:26;102491.75;;;3.66;100.00
25658;BME280;13517;59.320;18.042;2023-02-14T01:02:52;102524.53;;;3.88;100.00
25658;BME280;13517;59.320;18.042;2023-02-14T01:05:17;102521.13;;;3.71;100.00
25658;BME280;13517;59.320;18.042;2023-02-14T01:07:42;102549.50;;;3.87;100.00
25658;BME280;13517;59.320;18.042;2023-02-14T01:10:08;102538.88;;;3.75;100.00
25658;BME280;13517;59.320;18.042;2023-02-14T01:12:33;102547.78;;;3.80;100.00
25658;BME280;13517;59.320;18.042;2023-02-14T01:14:59;102506.91;;;3.59;100.00
25658;BME280;13517;59.320;18.042;2023-02-14T01:17:24;102536.25;;;3.72;100.00
25658;BME280;13517;59.320;18.042;2023-02-14T01:19:53;102556.72;;;3.76;100.00
25658;BME280;13517;59.320;18.042;2023-02-14T01:22:19;102552.31;;;3.65;100.00
25658;BME280;13517;59.320;18.042;2023-02-14T01:24:44;102512.34;;;3.51;100.00
25658;BME280;13517;59.320;18.042;2023-02-14T01:27:10;102487.50;;;3.34;100.00
25658;BME280;13517;59.320;18.042;2023-02-14T01:29:35;102533.69;;;3.56;100.00
25658;BME280;13517;59.320;18.042;2023-02-14T01:32:01;102551.50;;;3.57;100.00
25658;BME280;13517;59.320;18.042;2023-02-14T01:34:26;102501.78;;;3.30;100.00
25658;BME280;13517;59.320;18.042;2023-02-14T01:36:52;102539.06;;;3.47;100.00
25658;BME280;13517;59.320;18.042;2023-02-14T01:39:17;102541.75;;;3.45;100.00
25658;BME280;13517;59.320;18.042;2023-02-14T01:41:44;102524.91;;;3.26;100.00
25658;BME280;13517;59.320;18.042;2023-02-14T01:46:38;102513.50;;;2.99;100.00
25658;BME280;13517;59.320;18.042;2023-02-14T01:51:43;102545.47;;;3.15;100.00
25658;BME280;13517;59.320;18.042;2023-02-14T01:54:12;102534.81;;;3.04;100.00
25658;BME280;13517;59.320;18.042;2023-02-14T01:56:40;102578.38;;;3.17;100.00
25658;BME280;13517;59.320;18.042;2023-02-14T01:59:13;102541.13;;;2.84;100.00
25658;BME280;13517;59.320;18.042;2023-02-14T02:01:40;102592.66;;;3.12;100.00
25658;BME280;13517;59.320;18.042;2023-02-14T02:04:09;102553.56;;;2.93;100.00
25658;BME280;13517;59.320;18.042;2023-02-14T02:06:43;102528.69;;;2.78;100.00
25658;BME280;13517;59.320;18.042;2023-02-14T02:09:30;102569.53;;;3.00;100.00
25658;BME280;13517;59.320;18.042;2023-02-14T02:11:57;102576.66;;;2.98;100.00
25658;BME280;13517;59.320;18.042;2023-02-14T02:14:23;102581.13;;;2.93;100.00
25658;BME280;13517;59.320;18.042;2023-02-14T02:29:06;102588.28;;;2.83;100.00
25658;BME280;13517;59.320;18.042;2023-02-14T02:31:59;102594.50;;;2.78;100.00
25658;BME280;13517;59.320;18.042;2023-02-14T02:35:09;102587.41;;;2.72;100.00
25658;BME280;13517;59.320;18.042;2023-02-14T02:41:03;102596.31;;;2.76;100.00
25658;BME280;13517;59.320;18.042;2023-02-14T02:46:57;102594.53;;;2.79;100.00
25658;BME280;13517;59.320;18.042;2023-02-14T02:52:18;102593.63;;;2.72;100.00
25658;BME280;13517;59.320;18.042;2023-02-14T02:55:15;102606.97;;;2.79;100.00
25658;BME280;13517;59.320;18.042;2023-02-14T02:57:42;102605.19;;;2.79;100.00
25658;BME280;13517;59.320;18.042;2023-02-14T03:00:11;102580.31;;;2.66;100.00
25658;BME280;13517;59.320;18.042;2023-02-14T03:02:42;102564.31;;;2.55;100.00
25658;BME280;13517;59.320;18.042;2023-02-14T03:05:29;102592.75;;;2.66;100.00
25658;BME280;13517;59.320;18.042;2023-02-14T03:07:56;102534.09;;;2.31;100.00
25658;BME280;13517;59.320;18.042;2023-02-14T03:10:25;102564.34;;;2.49;100.00
25658;BME280;13517;59.320;18.042;2023-02-14T03:24:12;102606.13;;;2.61;100.00
25658;BME280;13517;59.320;18.042;2023-02-14T03:26:58;102590.09;;;2.47;100.00
25658;BME280;13517;59.320;18.042;2023-02-14T03:34:59;102614.09;;;2.58;100.00
25658;BME280;13517;59.320;18.042;2023-02-14T03:40:22;102598.09;;;2.47;100.00
25658;BME280;13517;59.320;18.042;2023-02-14T03:42:53;102606.13;;;2.45;100.00
25658;BME280;13517;59.320;18.042;2023-02-14T03:45:28;102622.13;;;2.58;100.00
25658;BME280;13517;59.320;18.042;2023-02-14T03:47:57;102623.91;;;2.61;100.00
25658;BME280;13517;59.320;18.042;2023-02-14T03:50:26;102615.91;;;2.51;100.00
25658;BME280;13517;59.320;18.042;2023-02-14T03:52:53;102633.66;;;2.68;100.00
25658;BME280;13517;59.320;18.042;2023-02-14T03:55:27;102608.78;;;2.64;100.00
25658;BME280;13517;59.320;18.042;2023-02-14T03:58:00;102632.78;;;2.75;100.00
25658;BME280;13517;59.320;18.042;2023-02-14T04:00:29;102624.78;;;2.75;100.00
25658;BME280;13517;59.320;18.042;2023-02-14T04:03:01;102616.75;;;2.69;100.00
25658;BME280;13517;59.320;18.042;2023-02-14T04:05:29;102571.44;;;2.47;100.00
25658;BME280;13517;59.320;18.042;2023-02-14T04:07:56;102576.78;;;2.52;100.00
25658;BME280;13517;59.320;18.042;2023-02-14T04:10:22;102614.09;;;2.70;100.00
25658;BME280;13517;59.320;18.042;2023-02-14T04:12:49;102593.66;;;2.63;100.00
25658;BME280;13517;59.320;18.042;2023-02-14T04:15:15;102566.09;;;2.50;100.00
25658;BME280;13517;59.320;18.042;2023-02-14T04:17:41;102602.53;;;2.71;100.00
25658;BME280;13517;59.320;18.042;2023-02-14T04:20:25;102628.34;;;2.77;100.00
25658;BME280;13517;59.320;18.042;2023-02-14T04:22:51;102626.53;;;2.76;100.00
25658;BME280;13517;59.320;18.042;2023-02-14T04:25:18;102636.34;;;2.80;100.00
25658;BME280;13517;59.320;18.042;2023-02-14T04:27:44;102641.66;;;2.83;100.00
25658;BME280;13517;59.320;18.042;2023-02-14T04:30:10;102613.22;;;2.68;100.00
25658;BME280;13517;59.320;18.042;2023-02-14T04:32:37;102640.78;;;2.84;100.00
25658;BME280;13517;59.320;18.042;2023-02-14T04:35:02;102616.78;;;2.74;100.00
25658;BME280;13517;59.320;18.042;2023-02-14T04:37:28;102625.66;;;2.80;100.00
25658;BME280;13517;59.320;18.042;2023-02-14T04:39:53;102601.66;;;2.58;100.00
25658;BME280;13517;59.320;18.042;2023-02-14T04:42:18;102647.00;;;2.83;100.00
25658;BME280;13517;59.320;18.042;2023-02-14T04:44:44;102576.75;;;2.41;100.00
25658;BME280;13517;59.320;18.042;2023-02-14T04:47:09;102565.22;;;2.26;100.00
25658;BME280;13517;59.320;18.042;2023-02-14T04:49:35;102641.69;;;2.77;100.00
25658;BME280;13517;59.320;18.042;2023-02-14T04:52:00;102645.25;;;2.81;100.00
25658;BME280;13517;59.320;18.042;2023-02-14T04:54:26;102612.34;;;2.65;100.00
25658;BME280;13517;59.320;18.042;2023-02-14T04:56:51;102643.44;;;2.80;100.00
25658;BME280;13517;59.320;18.042;2023-02-14T04:59:17;102654.13;;;2.81;100.00
25658;BME280;13517;59.320;18.042;2023-02-14T05:01:42;102657.69;;;2.79;100.00
25658;BME280;13517;59.320;18.042;2023-02-14T05:04:08;102657.69;;;2.79;100.00
25658;BME280;13517;59.320;18.042;2023-02-14T05:06:34;102630.09;;;2.69;100.00
25658;BME280;13517;59.320;18.042;2023-02-14T05:08:59;102639.00;;;2.68;100.00
25658;BME280;13517;59.320;18.042;2023-02-14T05:11:26;102631.00;;;2.69;100.00
25658;BME280;13517;59.320;18.042;2023-02-14T05:13:52;102609.66;;;2.57;100.00
25658;BME280;13517;59.320;18.042;2023-02-14T05:16:17;102606.13;;;2.55;100.00
25658;BME280;13517;59.320;18.042;2023-02-14T05:18:43;102599.91;;;2.57;100.00
25658;BME280;13517;59.320;18.042;2023-02-14T05:21:08;102644.34;;;2.80;100.00
25658;BME280;13517;59.320;18.042;2023-02-14T05:23:34;102614.13;;;2.63;100.00
25658;BME280;13517;59.320;18.042;2023-02-14T05:25:59;102631.91;;;2.70;100.00
25658;BME280;13517;59.320;18.042;2023-02-14T05:28:24;102649.69;;;2.82;100.00
25658;BME280;13517;59.320;18.042;2023-02-14T05:30:50;102613.22;;;2.56;100.00
25658;BME280;13517;59.320;18.042;2023-02-14T05:33:16;102605.22;;;2.57;100.00
25658;BME280;13517;59.320;18.042;2023-02-14T05:35:42;102628.34;;;2.66;100.00
25658;BME280;13517;59.320;18.042;2023-02-14T05:38:07;102586.56;;;2.42;100.00
25658;BME280;13517;59.320;18.042;2023-02-14T05:40:33;102618.56;;;2.50;100.00
25658;BME280;13517;59.320;18.042;2023-02-14T05:42:59;102611.47;;;2.45;100.00
25658;BME280;13517;59.320;18.042;2023-02-14T05:45:24;102628.34;;;2.52;100.00
25658;BME280;13517;59.320;18.042;2023-02-14T05:47:50;102622.13;;;2.49;100.00
25658;BME280;13517;59.320;18.042;2023-02-14T05:50:16;102632.78;;;2.64;100.00
25658;BME280;13517;59.320;18.042;2023-02-14T05:52:42;102631.03;;;2.58;100.00
25658;BME280;13517;59.320;18.042;2023-02-14T05:55:08;102535.03;;;1.99;100.00
25658;BME280;13517;59.320;18.042;2023-02-14T05:57:34;102590.13;;;2.35;100.00
25658;BME280;13517;59.320;18.042;2023-02-14T06:00:00;102631.91;;;2.51;100.00
25658;BME280;13517;59.320;18.042;2023-02-14T06:02:25;102649.69;;;2.65;100.00
25658;BME280;13517;59.320;18.042;2023-02-14T06:04:51;102629.22;;;2.54;100.00
25658;BME280;13517;59.320;18.042;2023-02-14T06:07:16;102630.13;;;2.59;100.00
25658;BME280;13517;59.320;18.042;2023-02-14T06:09:42;102656.78;;;2.81;100.00
25658;BME280;13517;59.320;18.042;2023-02-14T06:12:07;102662.16;;;2.77;100.00
25658;BME280;13517;59.320;18.042;2023-02-14T06:14:33;102644.34;;;2.69;100.00
25658;BME280;13517;59.320;18.042;2023-02-14T06:16:58;102645.25;;;2.64;100.00
25658;BME280;13517;59.320;18.042;2023-02-14T06:19:24;102628.34;;;2.62;100.00
25658;BME280;13517;59.320;18.042;2023-02-14T06:21:49;102596.34;;;2.43;100.00
25658;BME280;13517;59.320;18.042;2023-02-14T06:24:15;102644.38;;;2.71;100.00
25658;BME280;13517;59.320;18.042;2023-02-14T06:26:40;102602.56;;;2.40;100.00
25658;BME280;13517;59.320;18.042;2023-02-14T06:29:05;102642.56;;;2.61;100.00
25658;BME280;13517;59.320;18.042;2023-02-14T06:31:31;102687.03;;;2.79;100.00
25658;BME280;13517;59.320;18.042;2023-02-14T06:33:56;102673.69;;;2.79;100.00
25658;BME280;13517;59.320;18.042;2023-02-14T06:36:22;102672.81;;;2.81;100.00
25658;BME280;13517;59.320;18.042;2023-02-14T06:38:48;102672.81;;;2.83;100.00
25658;BME280;13517;59.320;18.042;2023-02-14T06:41:14;102667.47;;;2.75;100.00
25658;BME280;13517;59.320;18.042;2023-02-14T06:43:45;102597.25;;;2.36;100.00
25658;BME280;13517;59.320;18.042;2023-02-14T06:46:13;102645.25;;;2.53;100.00
25658;BME280;13517;59.320;18.042;2023-02-14T06:48:38;102608.78;;;2.33;100.00
25658;BME280;13517;59.320;18.042;2023-02-14T06:51:04;102628.34;;;2.37;100.00
25658;BME280;13517;59.320;18.042;2023-02-14T06:53:29;102641.69;;;2.40;100.00
25658;BME280;13517;59.320;18.042;2023-02-14T06:55:55;102648.78;;;2.41;100.00
25658;BME280;13517;59.320;18.042;2023-02-14T06:58:20;102671.94;;;2.45;100.00
25658;BME280;13517;59.320;18.042;2023-02-14T07:00:46;102590.97;;;1.96;100.00
25658;BME280;13517;59.320;18.042;2023-02-14T07:03:12;102687.03;;;2.40;100.00
25658;BME280;13517;59.320;18.042;2023-02-14T07:05:38;102679.94;;;2.36;100.00
25658;BME280;13517;59.320;18.042;2023-02-14T07:08:03;102669.25;;;2.29;100.00
25658;BME280;13517;59.320;18.042;2023-02-14T07:10:29;102679.91;;;2.29;100.00
25658;BME280;13517;59.320;18.042;2023-02-14T07:12:54;102668.34;;;2.21;100.00
25658;BME280;13517;59.320;18.042;2023-02-14T07:15:19;102651.44;;;2.16;100.00
25658;BME280;13517;59.320;18.042;2023-02-14T07:17:45;102695.94;;;2.39;100.00
25658;BME280;13517;59.320;18.042;2023-02-14T07:20:11;102699.47;;;2.41;100.00
25658;BME280;13517;59.320;18.042;2023-02-14T07:22:37;102631.00;;;2.06;100.00
25658;BME280;13517;59.320;18.042;2023-02-14T07:25:05;102674.59;;;2.29;100.00
25658;BME280;13517;59.320;18.042;2023-02-14T07:27:31;102692.38;;;2.43;100.00
25658;BME280;13517;59.320;18.042;2023-02-14T07:29:57;102617.66;;;2.09;100.00
25658;BME280;13517;59.320;18.042;2023-02-14T07:32:22;102640.78;;;2.16;100.00
25658;BME280;13517;59.320;18.042;2023-02-14T07:34:49;102658.59;;;2.31;100.00
25658;BME280;13517;59.320;18.042;2023-02-14T07:37:15;102654.13;;;2.25;100.00
25658;BME280;13517;59.320;18.042;2023-02-14T07:39:44;102700.41;;;2.54;100.00
25658;BME280;13517;59.320;18.042;2023-02-14T07:42:10;102707.53;;;2.52;100.00
25658;BME280;13517;59.320;18.042;2023-02-14T07:44:36;102695.06;;;2.55;100.00
25658;BME280;13517;59.320;18.042;2023-02-14T07:47:08;102694.16;;;2.58;100.00
25658;BME280;13517;59.320;18.042;2023-02-14T07:49:34;102672.81;;;2.53;100.00
25658;BME280;13517;59.320;18.042;2023-02-14T07:52:00;102671.03;;;2.58;100.00
25658;BME280;13517;59.320;18.042;2023-02-14T07:54:25;102702.16;;;2.86;100.00
25658;BME280;13517;59.320;18.042;2023-02-14T07:56:50;102680.81;;;2.70;100.00
25658;BME280;13517;59.320;18.042;2023-02-14T07:59:16;102682.59;;;2.71;100.00
25658;BME280;13517;59.320;18.042;2023-02-14T08:01:41;102663.94;;;2.64;100.00
25658;BME280;13517;59.320;18.042;2023-02-14T08:04:07;102628.34;;;2.44;100.00
25658;BME280;13517;59.320;18.042;2023-02-14T08:06:33;102704.84;;;2.97;100.00
25658;BME280;13517;59.320;18.042;2023-02-14T08:08:58;102711.09;;;2.99;100.00
25658;BME280;13517;59.320;18.042;2023-02-14T08:11:24;102706.63;;;3.01;100.00
25658;BME280;13517;59.320;18.042;2023-02-14T08:14:08;102687.94;;;2.82;100.00
25658;BME280;13517;59.320;18.042;2023-02-14T08:16:33;102694.16;;;2.97;100.00
25658;BME280;13517;59.320;18.042;2023-02-14T08:19:00;102706.59;;;3.04;100.00
25658;BME280;13517;59.320;18.042;2023-02-14T08:21:25;102632.78;;;2.64;100.00
25658;BME280;13517;59.320;18.042;2023-02-14T08:23:51;102684.38;;;3.02;100.00
25658;BME280;13517;59.320;18.042;2023-02-14T08:26:16;102712.81;;;3.20;100.00
25658;BME280;13517;59.320;18.042;2023-02-14T08:28:42;102716.41;;;3.21;100.00
25658;BME280;13517;59.320;18.042;2023-02-14T08:31:08;102684.34;;;3.08;100.00
25658;BME280;13517;59.320;18.042;2023-02-14T08:33:34;102677.25;;;3.07;100.00
25658;BME280;13517;59.320;18.042;2023-02-14T08:35:59;102708.38;;;3.27;100.00
25658;BME280;13517;59.320;18.042;2023-02-14T08:38:25;102696.78;;;3.33;100.00
25658;BME280;13517;59.320;18.042;2023-02-14T08:40:50;102703.88;;;3.46;100.00
25658;BME280;13517;59.320;18.042;2023-02-14T08:43:16;102671.81;;;3.32;100.00
25658;BME280;13517;59.320;18.042;2023-02-14T08:45:41;102678.06;;;3.40;100.00
25658;BME280;13517;59.320;18.042;2023-02-14T08:48:09;102668.22;;;3.47;100.00
25658;BME280;13517;59.320;18.042;2023-02-14T08:50:36;102642.41;;;3.38;100.00
25658;BME280;13517;59.320;18.042;2023-02-14T08:53:10;102709.06;;;3.85;100.00
25658;BME280;13517;59.320;18.042;2023-02-14T08:55:36;102708.13;;;3.89;100.00
25658;BME280;13517;59.320;18.042;2023-02-14T08:58:02;102685.94;;;3.76;100.00
25658;BME280;13517;59.320;18.042;2023-02-14T09:00:28;102693.91;;;3.81;100.00
25658;BME280;13517;59.320;18.042;2023-02-14T09:02:54;102686.84;;;3.77;100.00
25658;BME280;13517;59.320;18.042;2023-02-14T09:05:20;102700.16;;;3.86;100.00
25658;BME280;13517;59.320;18.042;2023-02-14T09:07:47;102673.50;;;3.71;100.00
25658;BME280;13517;59.320;18.042;2023-02-14T09:10:13;102698.44;;;3.76;100.00
25658;BME280;13517;59.320;18.042;2023-02-14T09:12:39;102678.00;;;3.56;100.00
25658;BME280;13517;59.320;18.042;2023-02-14T09:15:05;102673.59;;;3.44;100.00
25658;BME280;13517;59.320;18.042;2023-02-14T09:17:31;102632.69;;;3.14;100.00
25658;BME280;13517;59.320;18.042;2023-02-14T09:19:56;102715.41;;;3.59;100.00
25658;BME280;13517;59.320;18.042;2023-02-14T09:22:22;102705.59;;;3.58;100.00
25658;BME280;13517;59.320;18.042;2023-02-14T09:24:47;102721.66;;;3.53;100.00
25658;BME280;13517;59.320;18.042;2023-02-14T09:27:13;102643.41;;;3.09;100.00
25658;BME280;13517;59.320;18.042;2023-02-14T09:29:38;102691.41;;;3.44;100.00
25658;BME280;13517;59.320;18.042;2023-02-14T09:32:04;102670.06;;;3.26;100.00
25658;BME280;13517;59.320;18.042;2023-02-14T09:34:31;102700.28;;;3.52;100.00
25658;BME280;13517;59.320;18.042;2023-02-14T09:37:15;102681.59;;;3.43;100.00
25658;BME280;13517;59.320;18.042;2023-02-14T09:39:59;102700.25;;;3.57;100.00
25658;BME280;13517;59.320;18.042;2023-02-14T09:45:27;102674.47;;;3.48;100.00
25658;BME280;13517;59.320;18.042;2023-02-14T09:50:55;102708.25;;;3.64;100.00
25658;BME280;13517;59.320;18.042;2023-02-14T09:53:29;102711.78;;;3.73;100.00
25658;BME280;13517;59.320;18.042;2023-02-14T09:56:19;102707.38;;;3.67;100.00
25658;BME280;13517;59.320;18.042;2023-02-14T10:01:39;102708.19;;;3.80;100.00
25658;BME280;13517;59.320;18.042;2023-02-14T10:06:57;102699.25;;;3.86;100.00
25658;BME280;13517;59.320;18.042;2023-02-14T10:12:02;102672.56;;;3.79;100.00
25658;BME280;13517;59.320;18.042;2023-02-14T10:14:31;102652.06;;;3.74;100.00
25658;BME280;13517;59.320;18.042;2023-02-14T10:17:32;102650.28;;;3.73;100.00
25658;BME280;13517;59.320;18.042;2023-02-14T10:20:04;102692.94;;;4.02;100.00
25658;BME280;13517;59.320;18.042;2023-02-14T10:22:41;102699.16;;;4.03;100.00
25658;BME280;13517;59.320;18.042;2023-02-14T10:25:42;102640.47;;;3.75;100.00
25658;BME280;13517;59.320;18.042;2023-02-14T10:28:12;102686.66;;;4.09;100.00
25658;BME280;13517;59.320;18.042;2023-02-14T10:30:47;102686.66;;;4.09;100.00
25658;BME280;13517;59.320;18.042;2023-02-14T10:33:26;102677.69;;;4.17;100.00
25658;BME280;13517;59.320;18.042;2023-02-14T10:36:03;102627.06;;;3.83;100.00
25658;BME280;13517;59.320;18.042;2023-02-14T10:38:53;102688.38;;;4.21;100.00
25658;BME280;13517;59.320;18.042;2023-02-14T10:41:24;102684.75;;;4.27;100.00
25658;BME280;13517;59.320;18.042;2023-02-14T10:54:53;102670.47;;;4.33;100.00
25658;BME280;13517;59.320;18.042;2023-02-14T10:57:33;102610.00;;;4.07;100.00
25658;BME280;13517;59.320;18.042;2023-02-14T11:00:30;102674.84;;;4.43;100.00
25658;BME280;13517;59.320;18.042;2023-02-14T11:02:56;102657.03;;;4.38;100.00
25658;BME280;13517;59.320;18.042;2023-02-14T11:05:38;102678.38;;;4.47;100.00
25658;BME280;13517;59.320;18.042;2023-02-14T11:08:27;102638.44;;;4.20;100.00
25658;BME280;13517;59.320;18.042;2023-02-14T11:11:06;102676.53;;;4.55;100.00
25658;BME280;13517;59.320;18.042;2023-02-14T11:13:37;102671.16;;;4.58;100.00
25658;BME280;13517;59.320;18.042;2023-02-14T11:16:06;102670.25;;;4.58;100.00
25658;BME280;13517;59.320;18.042;2023-02-14T11:18:33;102635.63;;;4.38;100.00
25658;BME280;13517;59.320;18.042;2023-02-14T11:21:09;102638.28;;;4.39;100.00
25658;BME280;13517;59.320;18.042;2023-02-14T11:23:40;102680.91;;;4.64;100.00
25658;BME280;13517;59.320;18.042;2023-02-14T11:26:25;102671.13;;;4.63;100.00
25658;BME280;13517;59.320;18.042;2023-02-14T11:28:59;102673.75;;;4.66;100.00
25658;BME280;13517;59.320;18.042;2023-02-14T11:31:34;102637.38;;;4.45;100.00
25658;BME280;13517;59.320;18.042;2023-02-14T11:34:03;102662.13;;;4.70;100.00
25658;BME280;13517;59.320;18.042;2023-02-14T11:36:30;102600.84;;;4.34;100.00
25658;BME280;13517;59.320;18.042;2023-02-14T11:39:28;102630.19;;;4.50;100.00
25658;BME280;13517;59.320;18.042;2023-02-14T11:41:54;102652.28;;;4.72;100.00
25658;BME280;13517;59.320;18.042;2023-02-14T11:44:25;102609.63;;;4.54;100.00
25658;BME280;13517;59.320;18.042;2023-02-14T11:46:53;102644.19;;;4.80;100.00
25658;BME280;13517;59.320;18.042;2023-02-14T11:51:52;102601.53;;;4.60;100.00
25658;BME280;13517;59.320;18.042;2023-02-14T11:57:11;102643.19;;;4.89;100.00
25658;BME280;13517;59.320;18.042;2023-02-14T11:59:44;102605.03;;;4.68;100.00
25658;BME280;13517;59.320;18.042;2023-02-14T12:02:35;102625.41;;;4.82;100.00
25658;BME280;13517;59.320;18.042;2023-02-14T12:05:05;102583.69;;;4.62;100.00
25658;BME280;13517;59.320;18.042;2023-02-14T12:07:42;102636.06;;;4.91;100.00
25658;BME280;13517;59.320;18.042;2023-02-14T12:10:18;102627.13;;;4.89;100.00
25658;BME280;13517;59.320;18.042;2023-02-14T12:12:57;102619.13;;;4.86;100.00
25658;BME280;13517;59.320;18.042;2023-02-14T12:18:34;102564.03;;;4.61;100.00
25658;BME280;13517;59.320;18.042;2023-02-14T12:20:45;102624.38;;;4.97;100.00
25658;BME280;13517;59.320;18.042;2023-02-14T12:26:02;102622.66;;;4.93;100.00
25658;BME280;13517;59.320;18.042;2023-02-14T12:28:33;102621.75;;;4.89;100.00
25658;BME280;13517;59.320;18.042;2023-02-14T12:31:08;102622.59;;;4.97;100.00
25658;BME280;13517;59.320;18.042;2023-02-14T12:33:34;102578.16;;;4.74;100.00
25658;BME280;13517;59.320;18.042;2023-02-14T12:39:28;102614.56;;;4.97;100.00
25658;BME280;13517;59.320;18.042;2023-02-14T12:44:44;102603.78;;;5.03;100.00
25658;BME280;13517;59.320;18.042;2023-02-14T12:47:22;102586.03;;;4.93;100.00
25658;BME280;13517;59.320;18.042;2023-02-14T12:50:11;102606.38;;;5.10;100.00
25658;BME280;13517;59.320;18.042;2023-02-14T13:04:13;102594.78;;;5.09;100.00
25658;BME280;13517;59.320;18.042;2023-02-14T13:13:12;102589.34;;;5.14;100.00
25658;BME280;13517;59.320;18.042;2023-02-14T13:18:50;102584.88;;;5.16;100.00
25658;BME280;13517;59.320;18.042;2023-02-14T13:21:22;102586.63;;;5.18;100.00
25658;BME280;13517;59.320;18.042;2023-02-14T13:23:53;102561.84;;;4.99;100.00
25658;BME280;13517;59.320;18.042;2023-02-14T13:26:24;102597.34;;;5.20;100.00
25658;BME280;13517;59.320;18.042;2023-02-14T13:28:55;102590.16;;;5.21;100.00
25658;BME280;13517;59.320;18.042;2023-02-14T13:31:21;102564.47;;;5.06;100.00
25658;BME280;13517;59.320;18.042;2023-02-14T13:33:50;102596.38;;;5.24;100.00
25658;BME280;13517;59.320;18.042;2023-02-14T13:36:17;102596.38;;;5.24;100.00
25658;BME280;13517;59.320;18.042;2023-02-14T13:38:47;102594.59;;;5.26;100.00
25658;BME280;13517;59.320;18.042;2023-02-14T13:41:14;102582.94;;;5.29;100.00
25658;BME280;13517;59.320;18.042;2023-02-14T13:43:57;102582.97;;;5.26;100.00
25658;BME280;13517;59.320;18.042;2023-02-14T13:51:53;102590.91;;;5.34;100.00
25658;BME280;13517;59.320;18.042;2023-02-14T13:54:44;102585.56;;;5.34;100.00
25658;BME280;13517;59.320;18.042;2023-02-14T13:57:31;102589.16;;;5.32;100.00
25658;BME280;13517;59.320;18.042;2023-02-14T14:10:51;102580.22;;;5.30;100.00
25658;BME280;13517;59.320;18.042;2023-02-14T14:18:49;102551.69;;;5.26;100.00
25658;BME280;13517;59.320;18.042;2023-02-14T14:21:28;102567.66;;;5.34;100.00
25658;BME280;13517;59.320;18.042;2023-02-14T14:24:19;102577.50;;;5.34;100.00
25658;BME280;13517;59.320;18.042;2023-02-14T14:31:54;102554.38;;;5.26;100.00
25658;BME280;13517;59.320;18.042;2023-02-14T14:34:23;102553.47;;;5.27;100.00
25658;BME280;13517;59.320;18.042;2023-02-14T14:36:59;102564.13;;;5.30;100.00
25658;BME280;13517;59.320;18.042;2023-02-14T14:39:28;102552.63;;;5.24;100.00
25658;BME280;13517;59.320;18.042;2023-02-14T14:42:16;102541.06;;;5.20;100.00
25658;BME280;13517;59.320;18.042;2023-02-14T14:44:53;102554.47;;;5.18;100.00
25658;BME280;13517;59.320;18.042;2023-02-14T14:47:27;102548.25;;;5.18;100.00
25658;BME280;13517;59.320;18.042;2023-02-14T14:49:58;102498.59;;;4.87;100.00
25658;BME280;13517;59.320;18.042;2023-02-14T14:52:33;102545.59;;;5.15;100.00
25658;BME280;13517;59.320;18.042;2023-02-14T14:55:01;102518.06;;;5.02;100.00
25658;BME280;13517;59.320;18.042;2023-02-14T14:57:28;102483.53;;;4.77;100.00
25658;BME280;13517;59.320;18.042;2023-02-14T15:00:04;102542.97;;;5.10;100.00
25658;BME280;13517;59.320;18.042;2023-02-14T15:02:33;102542.97;;;5.10;100.00
25658;BME280;13517;59.320;18.042;2023-02-14T15:05:22;102519.06;;;4.91;100.00
25658;BME280;13517;59.320;18.042;2023-02-14T15:07:48;102511.94;;;4.92;100.00
25658;BME280;13517;59.320;18.042;2023-02-14T15:10:25;102527.94;;;4.98;100.00